Terminal Aerodrome Forecast
Issued by NWS Wichita, KS

Home | Current Version | Previous Version | Text Only | Print | Product List | Glossary Off
Versions: 1 2 3 4 5 6 7 8 9 10 11 12 13 14 15 16 17 18 19 20 21 22

186
FTUS43 KICT 151722
TAFICT
TAF
KICT 151722Z 1518/1618 16012KT P6SM FEW050 SCT250
     FM160000 15010KT P6SM VCTS SCT060CB BKN250
     FM160500 15007KT P6SM SCT100 BKN250
     FM161100 17005KT P6SM BKN070=

USA.gov is the U.S. government's official web portal to all federal, state and local government web resources and services.